Main page
METAR-TAF:

METAR-TAF

Airports :

Carcassonne Airport

Carcassonne, France

latitude: 43-13N, longitude: 002-19E, elevation: 130 m

Current weather observation

The report was made 28 minutes ago, at 04:30 UTC
Wind 9 kt from the East
Temperature 4°C
Humidity 75%
Pressure 1018 hPa
Visibility 10 km or more
Broken clouds at a height of 2400 ft

METAR: LFMK 160430Z AUTO 09009KT 9999 BKN024 04/00 Q1018 NOSIG

Time: 05:58 (04:58 UTC)

Forecast

The report was made 2 hours and 58 minutes ago, at 02:00 UTC
Forecast valid from 16 at 03 UTC to 17 at 03 UTC
Wind 6 kt from the East/Southeast
Visibility 10 km or more
no clouds below 1500 m and no cumulonimbus
Temporary
from 16 at 03 UTC to 16 at 08 UTC
Broken clouds at a height of 2000 ft

TAF: LFMK 160200Z 1603/1703 11006KT CAVOK TEMPO 1603/1608 BKN020

Weather observations and forecasts of more than 4000 airports (METAR and TAF reports).

The available stations are represented by yellow and red dots on the map.

Hover mouse over dot to see the name of the station.

Then click to see weather observations and forecasts.

To change the map : click on the green buttons with a black cross to zoom in, on the green button with a dash to zoom out, or on the green arrows for adjacent maps.


METAR-TAF: